Wan Hai 510 — 9VJJ8 — position and weather

sailwx.info

Track history (hours):
 
Tides and Currents Weather Stations Pressure Air Temp Water Temp Dewpoint Dewpoint Depression Visibility Wind Speed Wind Dir Waves Ship Positions

Wan Hai 510

Last reported at 2014-Sep-08 15:24 UTC. Time now 2014-Sep-17 23:42 UTC.
Position N 01°09' E 103°44'.
Warning: this ship's position is 9 days out of date.

Length 269 m; draft 11.9 m.

Type: Cargo ship. MMSI: 565741000.

Date/timePositionNaut miles runAvg speedWind from/ knotsBaromVisibWave heightAir tempDewpointWater temp
2014-Sep-08 15:24N 01°09' E 103°44'1214.6
2014-Sep-08 14:33N 01°14' E 103°55'  
2014-Sep-05 17:21N 21°51' E 113°56'2419.7
2014-Sep-05 16:07N 22°09' E 114°13'813.7
2014-Sep-05 15:33N 22°15' E 114°07'1410.4
2014-Sep-05 14:15N 22°22' E 113°55'5 6.5
2014-Sep-05 13:33N 22°26' E 113°53'1 1.3
2014-Sep-05 12:33N 22°27' E 113°54'0 0.0
2014-Sep-05 11:33N 22°27' E 113°54'0 0.1
2014-Sep-05 10:33N 22°27' E 113°54'0 0.1
2014-Sep-05 09:33N 22°27' E 113°54'0 0.0
2014-Sep-05 08:33N 22°27' E 113°54'0 0.0
2014-Sep-05 07:33N 22°27' E 113°54'0 0.0
2014-Sep-05 06:30N 22°27' E 113°54'0 0.0
2014-Sep-05 05:33N 22°27' E 113°54'0 0.0
2014-Sep-05 04:33N 22°27' E 113°54'0 0.0
2014-Sep-05 03:24N 22°27' E 113°54'0 0.0
2014-Sep-05 02:18N 22°27' E 113°54'0 0.0
2014-Sep-05 01:30N 22°27' E 113°54'0 0.0
2014-Sep-05 00:30N 22°27' E 113°54'3 3.5
2014-Sep-04 23:33N 22°24' E 113°54'11 9.8
2014-Sep-04 22:23N 22°20' E 114°05'2 0.2
2014-Sep-04 07:32N 22°20' E 114°08'11 7.5
2014-Sep-04 06:07N 22°10' E 114°13'121 7.3
2014-Sep-03 13:27N 22°17' E 116°24'2913.8
2014-Sep-03 11:21N 22°18' E 116°55'1313.7
2014-Sep-03 10:25N 22°18' E 117°09'1213.9
2014-Sep-03 09:33N 22°18' E 117°22'14117.4
2014-Sep-03 01:27N 22°32' E 119°54'1820.2
2014-Sep-03 00:33N 22°33' E 120°13'6 0.2
2014-Sep-01 22:16N 22°33' E 120°20'0 0.0
2014-Sep-01 21:28N 22°33' E 120°20'0 0.0
2014-Sep-01 20:10N 22°33' E 120°20'0 0.0
2014-Sep-01 16:30N 22°33' E 120°20'4 4.7
2014-Sep-01 15:33N 22°32' E 120°15'1313.4
2014-Sep-01 14:34N 22°21' E 120°07'1413.9
2014-Sep-01 13:32N 22°10' E 119°57'  
Track history (hours):
 
Tides and Currents Weather Stations Pressure Air Temp Water Temp Dewpoint Dewpoint Depression Visibility Wind Speed Wind Dir Waves Ship Positions

Wan Hai 510

Last reported at 2014-Sep-08 15:24 UTC. Time now 2014-Sep-17 23:42 UTC.
Position N 01°09' E 103°44'.
Warning: this ship's position is 9 days out of date.

Length 269 m; draft 11.9 m.

Type: Cargo ship. MMSI: 565741000.

Date/timePositionNaut miles runAvg speedWind from/ knotsBaromVisibWave heightAir tempDewpointWater temp
2014-Sep-08 15:24N 01°09' E 103°44'1214.6
2014-Sep-08 14:33N 01°14' E 103°55'  
2014-Sep-05 17:21N 21°51' E 113°56'2419.7
2014-Sep-05 16:07N 22°09' E 114°13'813.7
2014-Sep-05 15:33N 22°15' E 114°07'1410.4
2014-Sep-05 14:15N 22°22' E 113°55'5 6.5
2014-Sep-05 13:33N 22°26' E 113°53'1 1.3
2014-Sep-05 12:33N 22°27' E 113°54'0 0.0
2014-Sep-05 11:33N 22°27' E 113°54'0 0.1
2014-Sep-05 10:33N 22°27' E 113°54'0 0.1
2014-Sep-05 09:33N 22°27' E 113°54'0 0.0
2014-Sep-05 08:33N 22°27' E 113°54'0 0.0
2014-Sep-05 07:33N 22°27' E 113°54'0 0.0
2014-Sep-05 06:30N 22°27' E 113°54'0 0.0
2014-Sep-05 05:33N 22°27' E 113°54'0 0.0
2014-Sep-05 04:33N 22°27' E 113°54'0 0.0
2014-Sep-05 03:24N 22°27' E 113°54'0 0.0
2014-Sep-05 02:18N 22°27' E 113°54'0 0.0
2014-Sep-05 01:30N 22°27' E 113°54'0 0.0
2014-Sep-05 00:30N 22°27' E 113°54'3 3.5
2014-Sep-04 23:33N 22°24' E 113°54'11 9.8
2014-Sep-04 22:23N 22°20' E 114°05'2 0.2
2014-Sep-04 07:32N 22°20' E 114°08'11 7.5
2014-Sep-04 06:07N 22°10' E 114°13'121 7.3
2014-Sep-03 13:27N 22°17' E 116°24'2913.8
2014-Sep-03 11:21N 22°18' E 116°55'1313.7
2014-Sep-03 10:25N 22°18' E 117°09'1213.9
2014-Sep-03 09:33N 22°18' E 117°22'14117.4
2014-Sep-03 01:27N 22°32' E 119°54'1820.2
2014-Sep-03 00:33N 22°33' E 120°13'6 0.2
2014-Sep-01 22:16N 22°33' E 120°20'0 0.0
2014-Sep-01 21:28N 22°33' E 120°20'0 0.0
2014-Sep-01 20:10N 22°33' E 120°20'0 0.0
2014-Sep-01 16:30N 22°33' E 120°20'4 4.7
2014-Sep-01 15:33N 22°32' E 120°15'1313.4
2014-Sep-01 14:34N 22°21' E 120°07'1413.9
2014-Sep-01 13:32N 22°10' E 119°57'  

Dump ship's entire track history